sensor_id;sensor_type;location;lat;lon;timestamp;P1;durP1;ratioP1;P2;durP2;ratioP2
7487;SDS011;3785;52.260;4.728;2023-04-01T00:01:02;7.85;;;3.22;;
7487;SDS011;3785;52.260;4.728;2023-04-01T00:04:24;6.70;;;2.80;;
7487;SDS011;3785;52.260;4.728;2023-04-01T00:07:44;7.38;;;2.80;;
7487;SDS011;3785;52.260;4.728;2023-04-01T00:11:05;7.65;;;2.63;;
7487;SDS011;3785;52.260;4.728;2023-04-01T00:14:26;6.15;;;2.70;;
7487;SDS011;3785;52.260;4.728;2023-04-01T00:17:46;8.60;;;3.35;;
7487;SDS011;3785;52.260;4.728;2023-04-01T00:21:07;8.38;;;3.17;;
7487;SDS011;3785;52.260;4.728;2023-04-01T00:24:28;14.88;;;3.60;;
7487;SDS011;3785;52.260;4.728;2023-04-01T00:27:48;7.88;;;3.25;;
7487;SDS011;3785;52.260;4.728;2023-04-01T00:31:10;7.28;;;2.70;;
7487;SDS011;3785;52.260;4.728;2023-04-01T00:34:31;5.15;;;2.47;;
7487;SDS011;3785;52.260;4.728;2023-04-01T00:37:52;3.90;;;1.98;;
7487;SDS011;3785;52.260;4.728;2023-04-01T00:41:13;7.38;;;1.70;;
7487;SDS011;3785;52.260;4.728;2023-04-01T00:44:36;6.03;;;2.53;;
7487;SDS011;3785;52.260;4.728;2023-04-01T00:47:58;5.03;;;1.50;;
7487;SDS011;3785;52.260;4.728;2023-04-01T00:51:25;3.17;;;1.42;;
7487;SDS011;3785;52.260;4.728;2023-04-01T00:54:48;4.55;;;1.85;;
7487;SDS011;3785;52.260;4.728;2023-04-01T00:58:11;5.10;;;2.20;;
7487;SDS011;3785;52.260;4.728;2023-04-01T01:01:35;4.65;;;1.67;;
7487;SDS011;3785;52.260;4.728;2023-04-01T01:04:55;5.10;;;1.65;;
7487;SDS011;3785;52.260;4.728;2023-04-01T01:09:00;8.45;;;1.48;;
7487;SDS011;3785;52.260;4.728;2023-04-01T01:16:01;11.00;;;1.92;;
7487;SDS011;3785;52.260;4.728;2023-04-01T01:19:52;11.40;;;2.53;;
7487;SDS011;3785;52.260;4.728;2023-04-01T01:23:38;7.18;;;1.80;;
7487;SDS011;3785;52.260;4.728;2023-04-01T01:27:20;6.10;;;2.30;;
7487;SDS011;3785;52.260;4.728;2023-04-01T01:38:14;12.75;;;3.60;;
7487;SDS011;3785;52.260;4.728;2023-04-01T01:41:39;9.18;;;3.00;;
7487;SDS011;3785;52.260;4.728;2023-04-01T01:45:02;12.82;;;2.78;;
7487;SDS011;3785;52.260;4.728;2023-04-01T01:48:25;11.30;;;2.90;;
7487;SDS011;3785;52.260;4.728;2023-04-01T01:51:46;12.93;;;3.22;;
7487;SDS011;3785;52.260;4.728;2023-04-01T01:58:47;6.18;;;2.45;;
7487;SDS011;3785;52.260;4.728;2023-04-01T02:02:09;5.57;;;2.30;;
7487;SDS011;3785;52.260;4.728;2023-04-01T02:05:30;5.43;;;2.13;;
7487;SDS011;3785;52.260;4.728;2023-04-01T02:08:53;3.58;;;2.20;;
7487;SDS011;3785;52.260;4.728;2023-04-01T02:12:15;5.35;;;2.22;;
7487;SDS011;3785;52.260;4.728;2023-04-01T02:15:38;6.82;;;2.67;;
7487;SDS011;3785;52.260;4.728;2023-04-01T02:19:02;5.55;;;2.78;;
7487;SDS011;3785;52.260;4.728;2023-04-01T02:22:34;5.10;;;2.30;;
7487;SDS011;3785;52.260;4.728;2023-04-01T02:25:56;4.47;;;2.03;;
7487;SDS011;3785;52.260;4.728;2023-04-01T02:29:23;7.82;;;2.15;;
7487;SDS011;3785;52.260;4.728;2023-04-01T02:32:47;3.95;;;1.95;;
7487;SDS011;3785;52.260;4.728;2023-04-01T02:36:12;5.40;;;2.10;;
7487;SDS011;3785;52.260;4.728;2023-04-01T02:39:34;4.05;;;2.25;;
7487;SDS011;3785;52.260;4.728;2023-04-01T02:42:54;7.20;;;2.53;;
7487;SDS011;3785;52.260;4.728;2023-04-01T02:46:16;7.03;;;3.08;;
7487;SDS011;3785;52.260;4.728;2023-04-01T02:49:36;5.90;;;3.50;;
7487;SDS011;3785;52.260;4.728;2023-04-01T02:52:57;9.63;;;4.18;;
7487;SDS011;3785;52.260;4.728;2023-04-01T02:56:18;8.40;;;4.72;;
7487;SDS011;3785;52.260;4.728;2023-04-01T02:59:39;9.38;;;3.92;;
7487;SDS011;3785;52.260;4.728;2023-04-01T03:03:00;9.43;;;4.68;;
7487;SDS011;3785;52.260;4.728;2023-04-01T03:06:21;10.85;;;4.47;;
7487;SDS011;3785;52.260;4.728;2023-04-01T03:09:41;9.05;;;4.13;;
7487;SDS011;3785;52.260;4.728;2023-04-01T03:13:02;10.68;;;4.43;;
7487;SDS011;3785;52.260;4.728;2023-04-01T03:16:23;8.25;;;4.50;;
7487;SDS011;3785;52.260;4.728;2023-04-01T03:19:43;10.48;;;5.47;;
7487;SDS011;3785;52.260;4.728;2023-04-01T03:23:04;11.20;;;5.68;;
7487;SDS011;3785;52.260;4.728;2023-04-01T03:26:24;9.57;;;5.43;;
7487;SDS011;3785;52.260;4.728;2023-04-01T03:29:47;11.50;;;6.22;;
7487;SDS011;3785;52.260;4.728;2023-04-01T03:33:07;9.77;;;5.40;;
7487;SDS011;3785;52.260;4.728;2023-04-01T03:36:28;11.48;;;6.45;;
7487;SDS011;3785;52.260;4.728;2023-04-01T03:39:48;10.63;;;5.93;;
7487;SDS011;3785;52.260;4.728;2023-04-01T03:43:09;10.38;;;6.15;;
7487;SDS011;3785;52.260;4.728;2023-04-01T03:46:30;11.93;;;6.50;;
7487;SDS011;3785;52.260;4.728;2023-04-01T03:49:51;15.32;;;7.85;;
7487;SDS011;3785;52.260;4.728;2023-04-01T03:53:11;16.85;;;8.60;;
7487;SDS011;3785;52.260;4.728;2023-04-01T03:56:32;15.18;;;7.70;;
7487;SDS011;3785;52.260;4.728;2023-04-01T03:59:52;14.25;;;7.80;;
7487;SDS011;3785;52.260;4.728;2023-04-01T04:03:13;20.13;;;8.82;;
7487;SDS011;3785;52.260;4.728;2023-04-01T04:06:34;16.48;;;8.50;;
7487;SDS011;3785;52.260;4.728;2023-04-01T04:09:54;15.68;;;8.25;;
7487;SDS011;3785;52.260;4.728;2023-04-01T04:13:15;14.52;;;7.65;;
7487;SDS011;3785;52.260;4.728;2023-04-01T04:16:35;15.25;;;7.90;;
7487;SDS011;3785;52.260;4.728;2023-04-01T04:19:56;15.27;;;7.43;;
7487;SDS011;3785;52.260;4.728;2023-04-01T04:23:17;13.57;;;8.10;;
7487;SDS011;3785;52.260;4.728;2023-04-01T04:26:38;17.60;;;8.13;;
7487;SDS011;3785;52.260;4.728;2023-04-01T04:29:58;16.35;;;8.35;;
7487;SDS011;3785;52.260;4.728;2023-04-01T04:33:19;14.82;;;8.63;;
7487;SDS011;3785;52.260;4.728;2023-04-01T04:36:40;15.23;;;8.15;;
7487;SDS011;3785;52.260;4.728;2023-04-01T04:40:01;15.68;;;8.82;;
7487;SDS011;3785;52.260;4.728;2023-04-01T04:43:22;16.65;;;8.85;;
7487;SDS011;3785;52.260;4.728;2023-04-01T04:46:42;17.30;;;8.65;;
7487;SDS011;3785;52.260;4.728;2023-04-01T04:50:03;16.10;;;8.63;;
7487;SDS011;3785;52.260;4.728;2023-04-01T04:53:24;20.13;;;9.90;;
7487;SDS011;3785;52.260;4.728;2023-04-01T04:56:46;16.42;;;9.48;;
7487;SDS011;3785;52.260;4.728;2023-04-01T05:00:07;18.75;;;8.38;;
7487;SDS011;3785;52.260;4.728;2023-04-01T05:03:28;17.23;;;8.70;;
7487;SDS011;3785;52.260;4.728;2023-04-01T05:06:48;16.13;;;8.63;;
7487;SDS011;3785;52.260;4.728;2023-04-01T05:10:09;18.73;;;8.30;;
7487;SDS011;3785;52.260;4.728;2023-04-01T05:13:30;17.67;;;8.05;;
7487;SDS011;3785;52.260;4.728;2023-04-01T05:16:50;15.35;;;7.35;;
7487;SDS011;3785;52.260;4.728;2023-04-01T05:20:12;14.57;;;6.65;;
7487;SDS011;3785;52.260;4.728;2023-04-01T05:23:33;12.70;;;6.80;;
7487;SDS011;3785;52.260;4.728;2023-04-01T05:26:54;14.18;;;7.53;;
7487;SDS011;3785;52.260;4.728;2023-04-01T05:30:14;17.20;;;8.65;;
7487;SDS011;3785;52.260;4.728;2023-04-01T05:33:35;17.15;;;8.82;;
7487;SDS011;3785;52.260;4.728;2023-04-01T05:36:56;16.17;;;7.90;;
7487;SDS011;3785;52.260;4.728;2023-04-01T05:40:16;14.10;;;8.00;;
7487;SDS011;3785;52.260;4.728;2023-04-01T05:43:37;13.00;;;7.43;;
7487;SDS011;3785;52.260;4.728;2023-04-01T05:46:58;15.82;;;6.72;;
7487;SDS011;3785;52.260;4.728;2023-04-01T05:50:18;14.23;;;5.90;;
7487;SDS011;3785;52.260;4.728;2023-04-01T05:53:39;10.38;;;4.75;;
7487;SDS011;3785;52.260;4.728;2023-04-01T05:57:01;11.10;;;4.53;;
7487;SDS011;3785;52.260;4.728;2023-04-01T06:00:21;9.05;;;4.68;;
7487;SDS011;3785;52.260;4.728;2023-04-01T06:03:42;12.07;;;5.28;;
7487;SDS011;3785;52.260;4.728;2023-04-01T06:07:05;11.50;;;4.97;;
7487;SDS011;3785;52.260;4.728;2023-04-01T06:10:45;17.50;;;6.22;;
7487;SDS011;3785;52.260;4.728;2023-04-01T06:17:51;12.43;;;6.22;;
7487;SDS011;3785;52.260;4.728;2023-04-01T06:28:52;12.95;;;6.00;;
7487;SDS011;3785;52.260;4.728;2023-04-01T06:47:03;14.05;;;6.55;;
7487;SDS011;3785;52.260;4.728;2023-04-01T06:54:04;15.70;;;7.13;;
7487;SDS011;3785;52.260;4.728;2023-04-01T06:57:41;19.80;;;7.25;;
7487;SDS011;3785;52.260;4.728;2023-04-01T07:01:10;19.52;;;7.47;;
7487;SDS011;3785;52.260;4.728;2023-04-01T07:04:35;15.43;;;7.05;;
7487;SDS011;3785;52.260;4.728;2023-04-01T07:08:01;26.13;;;7.45;;
7487;SDS011;3785;52.260;4.728;2023-04-01T07:11:25;16.83;;;7.15;;
7487;SDS011;3785;52.260;4.728;2023-04-01T07:14:49;16.60;;;8.15;;
7487;SDS011;3785;52.260;4.728;2023-04-01T07:21:36;18.98;;;8.10;;
7487;SDS011;3785;52.260;4.728;2023-04-01T07:25:07;17.88;;;8.68;;
7487;SDS011;3785;52.260;4.728;2023-04-01T07:28:35;19.33;;;8.35;;
7487;SDS011;3785;52.260;4.728;2023-04-01T07:35:40;18.08;;;7.78;;
7487;SDS011;3785;52.260;4.728;2023-04-01T07:42:44;13.45;;;7.35;;
7487;SDS011;3785;52.260;4.728;2023-04-01T07:46:45;15.80;;;7.70;;
7487;SDS011;3785;52.260;4.728;2023-04-01T07:53:50;15.68;;;7.13;;
7487;SDS011;3785;52.260;4.728;2023-04-01T07:57:23;15.57;;;7.35;;
7487;SDS011;3785;52.260;4.728;2023-04-01T08:08:30;20.63;;;7.30;;
7487;SDS011;3785;52.260;4.728;2023-04-01T08:12:09;16.23;;;6.97;;
7487;SDS011;3785;52.260;4.728;2023-04-01T08:23:37;18.52;;;7.75;;
7487;SDS011;3785;52.260;4.728;2023-04-01T08:27:01;16.60;;;7.20;;
7487;SDS011;3785;52.260;4.728;2023-04-01T08:30:38;13.35;;;6.15;;
7487;SDS011;3785;52.260;4.728;2023-04-01T08:34:03;19.25;;;7.32;;
7487;SDS011;3785;52.260;4.728;2023-04-01T08:37:28;14.98;;;6.70;;
7487;SDS011;3785;52.260;4.728;2023-04-01T08:48:49;16.17;;;7.85;;
7487;SDS011;3785;52.260;4.728;2023-04-01T08:52:28;15.75;;;7.30;;
7487;SDS011;3785;52.260;4.728;2023-04-01T08:55:57;13.23;;;6.80;;
7487;SDS011;3785;52.260;4.728;2023-04-01T09:11:03;15.13;;;6.57;;
7487;SDS011;3785;52.260;4.728;2023-04-01T09:14:48;12.15;;;6.20;;
7487;SDS011;3785;52.260;4.728;2023-04-01T09:25:36;8.77;;;4.82;;
7487;SDS011;3785;52.260;4.728;2023-04-01T09:44:14;6.57;;;3.30;;
7487;SDS011;3785;52.260;4.728;2023-04-01T09:51:33;7.75;;;3.90;;
7487;SDS011;3785;52.260;4.728;2023-04-01T10:36:40;11.90;;;6.55;;
7487;SDS011;3785;52.260;4.728;2023-04-01T10:54:54;15.85;;;8.15;;
7487;SDS011;3785;52.260;4.728;2023-04-01T11:32:42;15.15;;;6.82;;
7487;SDS011;3785;52.260;4.728;2023-04-01T11:43:29;12.07;;;6.22;;
7487;SDS011;3785;52.260;4.728;2023-04-01T11:50:55;13.05;;;6.15;;
7487;SDS011;3785;52.260;4.728;2023-04-01T12:01:37;9.30;;;5.18;;
7487;SDS011;3785;52.260;4.728;2023-04-01T12:05:30;13.23;;;5.85;;
7487;SDS011;3785;52.260;4.728;2023-04-01T12:16:09;11.27;;;4.95;;
7487;SDS011;3785;52.260;4.728;2023-04-01T12:27:05;6.60;;;3.85;;
7487;SDS011;3785;52.260;4.728;2023-04-01T12:41:33;8.57;;;4.57;;
7487;SDS011;3785;52.260;4.728;2023-04-01T13:07:58;11.05;;;5.63;;
7487;SDS011;3785;52.260;4.728;2023-04-01T13:18:57;5.90;;;2.90;;
7487;SDS011;3785;52.260;4.728;2023-04-01T13:22:45;5.35;;;3.67;;
7487;SDS011;3785;52.260;4.728;2023-04-01T13:26:34;5.10;;;3.22;;
7487;SDS011;3785;52.260;4.728;2023-04-01T13:37:21;3.88;;;2.97;;
7487;SDS011;3785;52.260;4.728;2023-04-01T13:41:05;5.88;;;2.90;;
7487;SDS011;3785;52.260;4.728;2023-04-01T13:44:46;5.90;;;3.25;;
7487;SDS011;3785;52.260;4.728;2023-04-01T13:52:02;6.80;;;4.07;;
7487;SDS011;3785;52.260;4.728;2023-04-01T13:55:35;5.90;;;3.47;;
7487;SDS011;3785;52.260;4.728;2023-04-01T14:06:38;5.28;;;3.60;;
7487;SDS011;3785;52.260;4.728;2023-04-01T14:10:18;5.15;;;3.05;;
7487;SDS011;3785;52.260;4.728;2023-04-01T14:28:33;4.45;;;3.28;;
7487;SDS011;3785;52.260;4.728;2023-04-01T14:50:25;4.38;;;2.95;;
7487;SDS011;3785;52.260;4.728;2023-04-01T14:54:00;5.57;;;3.20;;
7487;SDS011;3785;52.260;4.728;2023-04-01T14:57:28;4.80;;;3.30;;
7487;SDS011;3785;52.260;4.728;2023-04-01T15:00:52;6.40;;;3.13;;
7487;SDS011;3785;52.260;4.728;2023-04-01T15:04:37;5.75;;;3.22;;
7487;SDS011;3785;52.260;4.728;2023-04-01T15:08:30;6.68;;;3.88;;
7487;SDS011;3785;52.260;4.728;2023-04-01T15:19:55;7.55;;;3.80;;
7487;SDS011;3785;52.260;4.728;2023-04-01T15:41:16;5.80;;;3.42;;
7487;SDS011;3785;52.260;4.728;2023-04-01T15:45:07;5.05;;;3.30;;
7487;SDS011;3785;52.260;4.728;2023-04-01T16:02:46;3.83;;;2.80;;
7487;SDS011;3785;52.260;4.728;2023-04-01T16:06:35;4.63;;;2.97;;
7487;SDS011;3785;52.260;4.728;2023-04-01T16:17:49;4.90;;;2.80;;
7487;SDS011;3785;52.260;4.728;2023-04-01T16:25:32;5.03;;;2.88;;
7487;SDS011;3785;52.260;4.728;2023-04-01T16:29:20;5.05;;;3.00;;
7487;SDS011;3785;52.260;4.728;2023-04-01T16:46:49;4.15;;;3.05;;
7487;SDS011;3785;52.260;4.728;2023-04-01T16:50:19;6.22;;;3.38;;
7487;SDS011;3785;52.260;4.728;2023-04-01T16:53:43;4.85;;;2.75;;
7487;SDS011;3785;52.260;4.728;2023-04-01T17:03:51;4.38;;;2.63;;
7487;SDS011;3785;52.260;4.728;2023-04-01T17:11:00;4.05;;;2.70;;
7487;SDS011;3785;52.260;4.728;2023-04-01T17:22:25;3.60;;;2.63;;
7487;SDS011;3785;52.260;4.728;2023-04-01T17:41:14;2.42;;;1.70;;
7487;SDS011;3785;52.260;4.728;2023-04-01T17:48:23;3.33;;;2.20;;
7487;SDS011;3785;52.260;4.728;2023-04-01T17:52:09;3.40;;;2.40;;
7487;SDS011;3785;52.260;4.728;2023-04-01T17:55:46;3.90;;;2.22;;
7487;SDS011;3785;52.260;4.728;2023-04-01T18:03:00;3.60;;;2.45;;
7487;SDS011;3785;52.260;4.728;2023-04-01T18:18:08;2.97;;;2.33;;
7487;SDS011;3785;52.260;4.728;2023-04-01T18:21:53;3.65;;;2.55;;
7487;SDS011;3785;52.260;4.728;2023-04-01T18:25:37;4.05;;;2.92;;
7487;SDS011;3785;52.260;4.728;2023-04-01T18:29:08;4.05;;;2.70;;
7487;SDS011;3785;52.260;4.728;2023-04-01T18:36:14;3.75;;;2.63;;
7487;SDS011;3785;52.260;4.728;2023-04-01T18:39:40;4.03;;;2.67;;
7487;SDS011;3785;52.260;4.728;2023-04-01T18:43:10;3.03;;;2.42;;
7487;SDS011;3785;52.260;4.728;2023-04-01T18:51:25;3.33;;;2.70;;
7487;SDS011;3785;52.260;4.728;2023-04-01T18:54:49;4.75;;;3.10;;
7487;SDS011;3785;52.260;4.728;2023-04-01T19:02:28;3.75;;;2.88;;
7487;SDS011;3785;52.260;4.728;2023-04-01T19:05:54;6.07;;;3.58;;
7487;SDS011;3785;52.260;4.728;2023-04-01T19:16:12;4.65;;;3.65;;
7487;SDS011;3785;52.260;4.728;2023-04-01T19:19:42;5.60;;;3.50;;
7487;SDS011;3785;52.260;4.728;2023-04-01T19:23:23;4.65;;;3.55;;
7487;SDS011;3785;52.260;4.728;2023-04-01T19:30:54;5.28;;;3.47;;
7487;SDS011;3785;52.260;4.728;2023-04-01T19:37:44;5.38;;;3.80;;
7487;SDS011;3785;52.260;4.728;2023-04-01T19:48:55;6.78;;;4.38;;
7487;SDS011;3785;52.260;4.728;2023-04-01T19:52:33;7.28;;;4.38;;
7487;SDS011;3785;52.260;4.728;2023-04-01T19:56:14;7.30;;;4.10;;
7487;SDS011;3785;52.260;4.728;2023-04-01T20:03:30;6.28;;;3.80;;
7487;SDS011;3785;52.260;4.728;2023-04-01T20:11:01;5.95;;;3.17;;
7487;SDS011;3785;52.260;4.728;2023-04-01T20:14:40;5.57;;;3.33;;
7487;SDS011;3785;52.260;4.728;2023-04-01T20:18:15;4.13;;;3.05;;
7487;SDS011;3785;52.260;4.728;2023-04-01T20:21:42;5.78;;;3.20;;
7487;SDS011;3785;52.260;4.728;2023-04-01T20:25:16;6.55;;;4.05;;
7487;SDS011;3785;52.260;4.728;2023-04-01T20:29:05;6.80;;;4.78;;
7487;SDS011;3785;52.260;4.728;2023-04-01T20:36:32;6.40;;;3.85;;
7487;SDS011;3785;52.260;4.728;2023-04-01T20:40:27;5.05;;;3.40;;
7487;SDS011;3785;52.260;4.728;2023-04-01T20:51:46;4.30;;;3.10;;
7487;SDS011;3785;52.260;4.728;2023-04-01T20:55:24;4.47;;;2.83;;
7487;SDS011;3785;52.260;4.728;2023-04-01T21:10:04;4.85;;;3.15;;
7487;SDS011;3785;52.260;4.728;2023-04-01T21:31:53;6.03;;;3.75;;
7487;SDS011;3785;52.260;4.728;2023-04-01T21:51:43;8.20;;;4.68;;
7487;SDS011;3785;52.260;4.728;2023-04-01T21:59:11;7.22;;;4.13;;
7487;SDS011;3785;52.260;4.728;2023-04-01T22:02:59;9.25;;;4.63;;
7487;SDS011;3785;52.260;4.728;2023-04-01T22:07:00;7.80;;;4.55;;
7487;SDS011;3785;52.260;4.728;2023-04-01T22:14:14;6.75;;;4.45;;
7487;SDS011;3785;52.260;4.728;2023-04-01T22:17:54;8.88;;;4.68;;
7487;SDS011;3785;52.260;4.728;2023-04-01T22:25:12;6.80;;;4.80;;
7487;SDS011;3785;52.260;4.728;2023-04-01T22:32:11;8.13;;;4.78;;
7487;SDS011;3785;52.260;4.728;2023-04-01T22:35:41;7.22;;;5.10;;
7487;SDS011;3785;52.260;4.728;2023-04-01T22:43:05;7.30;;;4.53;;
7487;SDS011;3785;52.260;4.728;2023-04-01T22:50:15;8.80;;;4.53;;
7487;SDS011;3785;52.260;4.728;2023-04-01T23:00:59;8.75;;;5.10;;
7487;SDS011;3785;52.260;4.728;2023-04-01T23:04:26;9.38;;;5.25;;
7487;SDS011;3785;52.260;4.728;2023-04-01T23:11:50;9.23;;;4.68;;
7487;SDS011;3785;52.260;4.728;2023-04-01T23:15:23;7.28;;;4.68;;
7487;SDS011;3785;52.260;4.728;2023-04-01T23:18:52;8.45;;;5.32;;
7487;SDS011;3785;52.260;4.728;2023-04-01T23:22:38;7.68;;;5.30;;
7487;SDS011;3785;52.260;4.728;2023-04-01T23:26:29;7.28;;;4.97;;
7487;SDS011;3785;52.260;4.728;2023-04-01T23:29:59;8.82;;;5.10;;
7487;SDS011;3785;52.260;4.728;2023-04-01T23:33:30;13.38;;;5.93;;
7487;SDS011;3785;52.260;4.728;2023-04-01T23:37:12;10.77;;;5.88;;
7487;SDS011;3785;52.260;4.728;2023-04-01T23:40:31;10.55;;;5.82;;
7487;SDS011;3785;52.260;4.728;2023-04-01T23:44:03;10.23;;;5.22;;
7487;SDS011;3785;52.260;4.728;2023-04-01T23:47:33;9.45;;;5.53;;
7487;SDS011;3785;52.260;4.728;2023-04-01T23:50:55;9.52;;;5.15;;
7487;SDS011;3785;52.260;4.728;2023-04-01T23:54:18;10.38;;;5.30;;
7487;SDS011;3785;52.260;4.728;2023-04-01T23:57:41;9.10;;;5.40;;
